Time,TemperatureF,DewpointF,PressureIn,WindDirection,WindDirectionDegrees,WindSpeedMPH,WindSpeedGustMPH,Humidity,HourlyPrecipIn,Conditions,Clouds,dailyrainin,SolarRadiationWatts/m^2,SoftwareType,DateUTC
2013-03-21 00:02:00,71.0,62.0,-100.00,ENE,67,3.0,5.0,73,0.00,,,-99.99,0.000000,,2013-03-21 10:02:00,
2013-03-21 00:12:00,71.0,62.0,-100.00,ENE,67,3.0,5.0,73,0.00,,,-99.99,0.000000,,2013-03-21 10:12:00,
2013-03-21 00:22:00,71.0,62.0,-100.00,East,84,2.0,5.0,73,0.00,,,0.00,0.000000,,2013-03-21 10:22:00,
2013-03-21 00:43:00,71.0,62.0,-100.00,East,84,2.0,5.0,73,0.00,,,0.00,0.000000,,2013-03-21 10:43:00,
2013-03-21 00:53:00,71.0,62.0,-100.00,East,84,2.0,5.0,73,0.00,,,0.00,0.000000,,2013-03-21 10:53:00,
2013-03-21 01:02:00,71.0,62.0,-100.00,East,84,2.0,5.0,73,0.00,,,0.00,0.000000,,2013-03-21 11:02:00,
2013-03-21 01:12:00,71.0,62.0,-100.00,East,84,2.0,5.0,73,0.00,,,0.00,0.000000,,2013-03-21 11:12:00,
2013-03-21 01:43:00,70.0,62.0,-100.00,East,95,2.0,4.0,75,0.00,,,0.00,0.000000,,2013-03-21 11:43:00,
2013-03-21 01:53:00,70.0,62.0,-100.00,East,95,2.0,4.0,75,0.00,,,0.00,0.000000,,2013-03-21 11:53:00,
2013-03-21 02:02:00,70.0,62.0,-100.00,East,95,2.0,4.0,75,0.00,,,0.00,0.000000,,2013-03-21 12:02:00,
2013-03-21 02:12:00,70.0,62.0,-100.00,East,95,2.0,4.0,75,0.00,,,0.00,0.000000,,2013-03-21 12:12:00,
2013-03-21 02:21:00,70.0,62.0,-100.00,East,95,2.0,4.0,75,0.00,,,0.00,0.000000,,2013-03-21 12:21:00,
2013-03-21 02:43:00,69.0,61.0,-100.00,East,96,2.0,4.0,75,0.00,,,0.00,0.000000,,2013-03-21 12:43:00,
2013-03-21 02:52:00,69.0,61.0,-100.00,East,96,2.0,4.0,75,0.00,,,0.00,0.000000,,2013-03-21 12:52:00,
2013-03-21 03:02:00,69.0,61.0,-100.00,East,96,2.0,4.0,75,0.00,,,0.00,0.000000,,2013-03-21 13:02:00,
2013-03-21 03:12:00,69.0,61.0,-100.00,East,96,2.0,4.0,75,0.00,,,0.00,0.000000,,2013-03-21 13:12:00,
2013-03-21 03:21:00,69.0,61.0,-100.00,East,96,2.0,4.0,75,0.00,,,0.00,0.000000,,2013-03-21 13:21:00,
2013-03-21 03:43:00,69.0,61.0,-100.00,East,92,2.0,4.0,75,0.00,,,0.00,0.000000,,2013-03-21 13:43:00,
2013-03-21 03:52:00,69.0,61.0,-100.00,East,92,2.0,4.0,75,0.00,,,0.00,0.000000,,2013-03-21 13:52:00,
2013-03-21 04:02:00,69.0,61.0,-100.00,East,92,2.0,4.0,75,0.00,,,0.00,0.000000,,2013-03-21 14:02:00,
2013-03-21 04:11:00,69.0,61.0,-100.00,East,92,2.0,4.0,75,0.00,,,0.00,0.000000,,2013-03-21 14:11:00,
2013-03-21 04:21:00,69.0,61.0,-100.00,East,92,2.0,4.0,75,0.00,,,0.00,0.000000,,2013-03-21 14:21:00,
2013-03-21 04:43:00,69.0,62.0,-100.00,East,92,2.0,4.0,78,0.00,,,0.00,0.000000,,2013-03-21 14:43:00,
2013-03-21 04:52:00,69.0,62.0,-100.00,East,92,2.0,4.0,78,0.00,,,0.00,0.000000,,2013-03-21 14:52:00,
2013-03-21 05:03:00,69.0,62.0,-100.00,East,92,2.0,4.0,78,0.00,,,0.00,0.000000,,2013-03-21 15:03:00,
2013-03-21 05:12:00,69.0,62.0,-100.00,East,92,2.0,4.0,78,0.00,,,0.00,0.000000,,2013-03-21 15:12:00,
2013-03-21 05:21:00,69.0,62.0,-100.00,East,92,2.0,4.0,78,0.00,,,0.00,0.000000,,2013-03-21 15:21:00,
2013-03-21 05:22:00,68.0,60.0,-100.00,East,88,3.0,5.0,76,0.00,,,0.00,0.000000,,2013-03-21 15:22:00,
2013-03-21 05:43:00,68.0,60.0,-100.00,East,88,3.0,5.0,76,0.00,,,0.00,0.000000,,2013-03-21 15:43:00,
2013-03-21 05:53:00,68.0,60.0,-100.00,East,88,3.0,5.0,76,0.00,,,0.00,0.000000,,2013-03-21 15:53:00,
2013-03-21 06:03:00,68.0,60.0,-100.00,East,88,3.0,5.0,76,0.00,,,0.00,0.000000,,2013-03-21 16:03:00,
2013-03-21 06:12:00,68.0,60.0,-100.00,East,88,3.0,5.0,76,0.00,,,0.00,0.000000,,2013-03-21 16:12:00,
2013-03-21 06:22:00,67.0,59.0,-100.00,East,88,2.0,5.0,76,0.00,,,0.00,0.000000,,2013-03-21 16:22:00,
2013-03-21 06:42:00,67.0,59.0,-100.00,East,88,2.0,5.0,76,0.00,,,0.00,0.000000,,2013-03-21 16:42:00,
2013-03-21 06:53:00,67.0,59.0,-100.00,East,88,2.0,5.0,76,0.00,,,0.00,0.000000,,2013-03-21 16:53:00,
2013-03-21 07:02:00,67.0,59.0,-100.00,East,88,2.0,5.0,76,0.00,,,0.00,0.000000,,2013-03-21 17:02:00,
2013-03-21 07:12:00,67.0,59.0,-100.00,East,88,2.0,5.0,76,0.00,,,0.00,0.000000,,2013-03-21 17:12:00,
2013-03-21 07:43:00,67.0,57.0,-100.00,East,87,3.0,4.0,71,0.00,,,0.00,9.000000,,2013-03-21 17:43:00,
2013-03-21 07:53:00,67.0,57.0,-100.00,East,87,3.0,4.0,71,0.00,,,0.00,9.000000,,2013-03-21 17:53:00,
2013-03-21 08:02:00,67.0,57.0,-100.00,East,87,3.0,4.0,71,0.00,,,0.00,9.000000,,2013-03-21 18:02:00,
2013-03-21 08:12:00,67.0,57.0,-100.00,East,87,3.0,4.0,71,0.00,,,0.00,9.000000,,2013-03-21 18:12:00,
2013-03-21 08:21:00,67.0,57.0,-100.00,East,87,3.0,4.0,71,0.00,,,0.00,9.000000,,2013-03-21 18:21:00,
2013-03-21 08:43:00,72.0,54.0,-100.00,East,89,2.0,5.0,54,0.00,,,0.00,161.000000,,2013-03-21 18:43:00,
2013-03-21 08:52:00,72.0,54.0,-100.00,East,89,2.0,5.0,54,0.00,,,0.00,161.000000,,2013-03-21 18:52:00,
2013-03-21 09:02:00,72.0,54.0,-100.00,East,89,2.0,5.0,54,0.00,,,0.00,161.000000,,2013-03-21 19:02:00,
2013-03-21 09:12:00,72.0,54.0,-100.00,East,89,2.0,5.0,54,0.00,,,0.00,161.000000,,2013-03-21 19:12:00,
2013-03-21 09:21:00,72.0,54.0,-100.00,East,89,2.0,5.0,54,0.00,,,0.00,161.000000,,2013-03-21 19:21:00,
2013-03-21 09:22:00,78.0,63.0,-100.00,South,182,2.0,5.0,61,0.00,,,0.00,381.000000,,2013-03-21 19:22:00,
2013-03-21 09:43:00,78.0,63.0,-100.00,South,182,2.0,5.0,61,0.00,,,0.00,381.000000,,2013-03-21 19:43:00,
2013-03-21 09:52:00,78.0,63.0,-100.00,South,182,2.0,5.0,61,0.00,,,0.00,381.000000,,2013-03-21 19:52:00,
2013-03-21 10:02:00,78.0,63.0,-100.00,South,182,2.0,5.0,61,0.00,,,0.00,381.000000,,2013-03-21 20:02:00,
2013-03-21 10:12:00,78.0,63.0,-100.00,South,182,2.0,5.0,61,0.00,,,0.00,381.000000,,2013-03-21 20:12:00,
2013-03-21 10:42:00,78.0,64.0,-100.00,WSW,254,3.0,7.0,63,0.00,,,0.00,612.000000,,2013-03-21 20:42:00,
2013-03-21 10:53:00,78.0,64.0,-100.00,WSW,254,3.0,7.0,63,0.00,,,0.00,612.000000,,2013-03-21 20:53:00,
2013-03-21 11:02:00,78.0,64.0,-100.00,WSW,254,3.0,7.0,63,0.00,,,0.00,612.000000,,2013-03-21 21:02:00,
2013-03-21 11:12:00,78.0,64.0,-100.00,WSW,254,3.0,7.0,63,0.00,,,0.00,612.000000,,2013-03-21 21:12:00,
2013-03-21 11:21:00,78.0,64.0,-100.00,WSW,254,3.0,7.0,63,0.00,,,0.00,612.000000,,2013-03-21 21:21:00,
2013-03-21 11:22:00,78.0,62.0,-100.00,West,264,4.0,8.0,58,0.00,,,0.00,781.000000,,2013-03-21 21:22:00,
2013-03-21 11:43:00,78.0,62.0,-100.00,West,264,4.0,8.0,58,0.00,,,0.00,781.000000,,2013-03-21 21:43:00,
2013-03-21 11:53:00,78.0,62.0,-100.00,West,264,4.0,8.0,58,0.00,,,0.00,781.000000,,2013-03-21 21:53:00,
2013-03-21 12:02:00,78.0,62.0,-100.00,West,264,4.0,8.0,58,0.00,,,0.00,781.000000,,2013-03-21 22:02:00,
2013-03-21 12:12:00,78.0,62.0,-100.00,West,264,4.0,8.0,58,0.00,,,0.00,781.000000,,2013-03-21 22:12:00,
2013-03-21 12:43:00,79.0,63.0,-100.00,West,268,5.0,10.0,58,0.00,,,0.00,884.000000,,2013-03-21 22:43:00,
2013-03-21 12:52:00,79.0,63.0,-100.00,West,268,5.0,10.0,58,0.00,,,0.00,884.000000,,2013-03-21 22:52:00,
2013-03-21 13:02:00,79.0,63.0,-100.00,West,268,5.0,10.0,58,0.00,,,0.00,884.000000,,2013-03-21 23:02:00,
2013-03-21 13:12:00,79.0,63.0,-100.00,West,268,5.0,10.0,58,0.00,,,0.00,884.000000,,2013-03-21 23:12:00,
2013-03-21 13:21:00,79.0,63.0,-100.00,West,268,5.0,10.0,58,0.00,,,0.00,884.000000,,2013-03-21 23:21:00,
2013-03-21 13:43:00,80.0,66.0,-100.00,West,273,6.0,12.0,63,0.00,,,0.00,932.000000,,2013-03-21 23:43:00,
2013-03-21 13:53:00,80.0,66.0,-100.00,West,273,6.0,12.0,63,0.00,,,0.00,932.000000,,2013-03-21 23:53:00,
2013-03-21 14:02:00,80.0,66.0,-100.00,West,273,6.0,12.0,63,0.00,,,0.00,932.000000,,2013-03-22 00:02:00,
2013-03-21 14:12:00,80.0,66.0,-100.00,West,273,6.0,12.0,63,0.00,,,0.00,932.000000,,2013-03-22 00:12:00,
2013-03-21 14:21:00,80.0,66.0,-100.00,West,273,6.0,12.0,63,0.00,,,0.00,932.000000,,2013-03-22 00:21:00,
2013-03-21 14:42:00,81.0,66.0,-100.00,West,272,6.0,13.0,60,0.00,,,0.00,898.000000,,2013-03-22 00:42:00,
2013-03-21 14:52:00,81.0,66.0,-100.00,West,272,6.0,13.0,60,0.00,,,0.00,898.000000,,2013-03-22 00:52:00,
2013-03-21 15:02:00,81.0,66.0,-100.00,West,272,6.0,13.0,60,0.00,,,0.00,898.000000,,2013-03-22 01:02:00,
2013-03-21 15:12:00,81.0,66.0,-100.00,West,272,6.0,13.0,60,0.00,,,0.00,898.000000,,2013-03-22 01:12:00,
2013-03-21 15:21:00,81.0,66.0,-100.00,West,272,6.0,13.0,60,0.00,,,0.00,898.000000,,2013-03-22 01:21:00,
2013-03-21 15:43:00,81.0,69.0,-100.00,West,281,6.0,13.0,66,0.00,,,0.00,721.000000,,2013-03-22 01:43:00,
2013-03-21 15:53:00,81.0,69.0,-100.00,West,281,6.0,13.0,66,0.00,,,0.00,721.000000,,2013-03-22 01:53:00,
2013-03-21 16:02:00,81.0,69.0,-100.00,West,281,6.0,13.0,66,0.00,,,0.00,721.000000,,2013-03-22 02:02:00,
2013-03-21 16:12:00,81.0,69.0,-100.00,West,281,6.0,13.0,66,0.00,,,0.00,721.000000,,2013-03-22 02:12:00,
2013-03-21 16:21:00,81.0,69.0,-100.00,West,281,6.0,13.0,66,0.00,,,0.00,721.000000,,2013-03-22 02:21:00,
2013-03-21 16:43:00,80.0,67.0,-100.00,WNW,299,5.0,12.0,65,0.00,,,0.00,579.000000,,2013-03-22 02:43:00,
2013-03-21 16:52:00,80.0,67.0,-100.00,WNW,299,5.0,12.0,65,0.00,,,0.00,579.000000,,2013-03-22 02:52:00,
2013-03-21 17:02:00,80.0,67.0,-100.00,WNW,299,5.0,12.0,65,0.00,,,0.00,579.000000,,2013-03-22 03:02:00,
2013-03-21 17:12:00,80.0,67.0,-100.00,WNW,299,5.0,12.0,65,0.00,,,0.00,579.000000,,2013-03-22 03:12:00,
2013-03-21 17:21:00,80.0,67.0,-100.00,WNW,299,5.0,12.0,65,0.00,,,0.00,579.000000,,2013-03-22 03:21:00,
2013-03-21 17:22:00,80.0,69.0,-100.00,WNW,282,6.0,13.0,69,0.00,,,0.00,410.000000,,2013-03-22 03:22:00,
2013-03-21 17:43:00,80.0,69.0,-100.00,WNW,282,6.0,13.0,69,0.00,,,0.00,410.000000,,2013-03-22 03:43:00,
2013-03-21 17:53:00,80.0,69.0,-100.00,WNW,282,6.0,13.0,69,0.00,,,0.00,410.000000,,2013-03-22 03:53:00,
2013-03-21 18:03:00,80.0,69.0,-100.00,WNW,282,6.0,13.0,69,0.00,,,0.00,410.000000,,2013-03-22 04:03:00,
2013-03-21 18:12:00,80.0,69.0,-100.00,WNW,282,6.0,13.0,69,0.00,,,0.00,410.000000,,2013-03-22 04:12:00,
2013-03-21 18:43:00,78.0,67.0,-100.00,West,261,4.0,12.0,68,0.00,,,0.00,163.000000,,2013-03-22 04:43:00,
2013-03-21 18:52:00,78.0,67.0,-100.00,West,261,4.0,12.0,68,0.00,,,0.00,163.000000,,2013-03-22 04:52:00,
2013-03-21 19:02:00,78.0,67.0,-100.00,West,261,4.0,12.0,68,0.00,,,0.00,163.000000,,2013-03-22 05:02:00,
2013-03-21 19:12:00,78.0,67.0,-100.00,West,261,4.0,12.0,68,0.00,,,0.00,163.000000,,2013-03-22 05:12:00,
2013-03-21 19:21:00,78.0,67.0,-100.00,West,261,4.0,12.0,68,0.00,,,0.00,163.000000,,2013-03-22 05:21:00,
2013-03-21 19:42:00,76.0,66.0,-100.00,SSW,206,2.0,5.0,72,0.00,,,0.00,24.000000,,2013-03-22 05:42:00,
2013-03-21 19:52:00,76.0,66.0,-100.00,SSW,206,2.0,5.0,72,0.00,,,0.00,24.000000,,2013-03-22 05:52:00,
2013-03-21 20:02:00,76.0,66.0,-100.00,SSW,206,2.0,5.0,72,0.00,,,0.00,24.000000,,2013-03-22 06:02:00,
2013-03-21 20:12:00,76.0,66.0,-100.00,SSW,206,2.0,5.0,72,0.00,,,0.00,24.000000,,2013-03-22 06:12:00,
2013-03-21 20:21:00,76.0,66.0,-100.00,SSW,206,2.0,5.0,72,0.00,,,0.00,24.000000,,2013-03-22 06:21:00,
2013-03-21 20:43:00,75.0,66.0,-100.00,SW,219,2.0,3.0,74,0.00,,,0.00,0.000000,,2013-03-22 06:43:00,
2013-03-21 20:52:00,75.0,66.0,-100.00,SW,219,2.0,3.0,74,0.00,,,0.00,0.000000,,2013-03-22 06:52:00,
2013-03-21 21:02:00,75.0,66.0,-100.00,SW,219,2.0,3.0,74,0.00,,,0.00,0.000000,,2013-03-22 07:02:00,
2013-03-21 21:12:00,75.0,66.0,-100.00,SW,219,2.0,3.0,74,0.00,,,0.00,0.000000,,2013-03-22 07:12:00,
2013-03-21 21:21:00,75.0,66.0,-100.00,SW,219,2.0,3.0,74,0.00,,,0.00,0.000000,,2013-03-22 07:21:00,
2013-03-21 21:42:00,74.0,64.0,-100.00,SW,225,1.0,3.0,71,0.00,,,0.00,0.000000,,2013-03-22 07:42:00,
2013-03-21 21:52:00,74.0,64.0,-100.00,SW,225,1.0,3.0,71,0.00,,,0.00,0.000000,,2013-03-22 07:52:00,
2013-03-21 22:02:00,74.0,64.0,-100.00,SW,225,1.0,3.0,71,0.00,,,0.00,0.000000,,2013-03-22 08:02:00,
2013-03-21 22:12:00,74.0,64.0,-100.00,SW,225,1.0,3.0,71,0.00,,,0.00,0.000000,,2013-03-22 08:12:00,
2013-03-21 22:21:00,74.0,64.0,-100.00,SW,225,1.0,3.0,71,0.00,,,0.00,0.000000,,2013-03-22 08:21:00,
2013-03-21 22:42:00,73.0,63.0,-100.00,East,91,2.0,5.0,71,0.00,,,0.00,0.000000,,2013-03-22 08:42:00,
2013-03-21 22:52:00,73.0,63.0,-100.00,East,91,2.0,5.0,71,0.00,,,0.00,0.000000,,2013-03-22 08:52:00,
2013-03-21 23:02:00,73.0,63.0,-100.00,East,91,2.0,5.0,71,0.00,,,0.00,0.000000,,2013-03-22 09:02:00,
2013-03-21 23:12:00,73.0,63.0,-100.00,East,91,2.0,5.0,71,0.00,,,0.00,0.000000,,2013-03-22 09:12:00,
2013-03-21 23:21:00,73.0,63.0,-100.00,East,91,2.0,5.0,71,0.00,,,0.00,0.000000,,2013-03-22 09:21:00,
2013-03-21 23:22:00,72.0,61.0,-100.00,East,92,2.0,4.0,69,0.00,,,0.00,0.000000,,2013-03-22 09:22:00,
2013-03-21 23:42:00,72.0,61.0,-100.00,East,92,2.0,4.0,69,0.00,,,0.00,0.000000,,2013-03-22 09:42:00,
2013-03-21 23:53:00,72.0,61.0,-100.00,East,92,2.0,4.0,69,0.00,,,0.00,0.000000,,2013-03-22 09:53:00,